sensor_id;sensor_type;location;lat;lon;timestamp;temperature;humidity
3416;DHT22;1721;51.238;9.562;2023-03-31T00:00:42;11.10;99.40
3416;DHT22;1721;51.238;9.562;2023-03-31T00:03:08;11.10;99.50
3416;DHT22;1721;51.238;9.562;2023-03-31T00:05:37;11.00;99.70
3416;DHT22;1721;51.238;9.562;2023-03-31T00:08:02;10.90;99.90
3416;DHT22;1721;51.238;9.562;2023-03-31T00:10:32;10.90;99.90
3416;DHT22;1721;51.238;9.562;2023-03-31T00:13:00;10.90;99.70
3416;DHT22;1721;51.238;9.562;2023-03-31T00:15:26;11.00;99.60
3416;DHT22;1721;51.238;9.562;2023-03-31T00:17:52;11.00;99.60
3416;DHT22;1721;51.238;9.562;2023-03-31T00:20:18;11.00;99.60
3416;DHT22;1721;51.238;9.562;2023-03-31T00:22:43;10.90;99.60
3416;DHT22;1721;51.238;9.562;2023-03-31T00:25:13;10.80;99.90
3416;DHT22;1721;51.238;9.562;2023-03-31T00:27:41;10.70;99.90
3416;DHT22;1721;51.238;9.562;2023-03-31T00:30:08;10.80;99.90
3416;DHT22;1721;51.238;9.562;2023-03-31T00:32:34;10.80;99.90
3416;DHT22;1721;51.238;9.562;2023-03-31T00:35:00;10.80;99.90
3416;DHT22;1721;51.238;9.562;2023-03-31T00:37:27;10.90;99.90
3416;DHT22;1721;51.238;9.562;2023-03-31T00:39:52;10.90;99.90
3416;DHT22;1721;51.238;9.562;2023-03-31T00:42:18;11.00;99.90
3416;DHT22;1721;51.238;9.562;2023-03-31T00:47:33;11.10;99.90
3416;DHT22;1721;51.238;9.562;2023-03-31T00:49:59;11.20;99.90
3416;DHT22;1721;51.238;9.562;2023-03-31T00:52:33;11.20;99.70
3416;DHT22;1721;51.238;9.562;2023-03-31T00:55:08;11.20;99.70
3416;DHT22;1721;51.238;9.562;2023-03-31T00:57:37;11.20;99.70
3416;DHT22;1721;51.238;9.562;2023-03-31T01:00:06;11.10;99.70
3416;DHT22;1721;51.238;9.562;2023-03-31T01:02:47;11.10;99.90
3416;DHT22;1721;51.238;9.562;2023-03-31T01:07:58;11.10;99.80
3416;DHT22;1721;51.238;9.562;2023-03-31T01:10:25;11.10;99.90
3416;DHT22;1721;51.238;9.562;2023-03-31T01:12:53;11.10;99.80
3416;DHT22;1721;51.238;9.562;2023-03-31T01:15:19;11.00;99.70
3416;DHT22;1721;51.238;9.562;2023-03-31T01:17:45;10.80;99.90
3416;DHT22;1721;51.238;9.562;2023-03-31T01:33:46;10.70;99.90
3416;DHT22;1721;51.238;9.562;2023-03-31T01:41:57;10.50;99.90
3416;DHT22;1721;51.238;9.562;2023-03-31T01:44:42;10.50;99.90
3416;DHT22;1721;51.238;9.562;2023-03-31T01:47:19;10.50;99.90
3416;DHT22;1721;51.238;9.562;2023-03-31T01:50:10;10.40;99.90
3416;DHT22;1721;51.238;9.562;2023-03-31T01:55:47;10.40;99.90
3416;DHT22;1721;51.238;9.562;2023-03-31T01:58:32;10.40;99.90
3416;DHT22;1721;51.238;9.562;2023-03-31T02:01:05;10.50;99.90
3416;DHT22;1721;51.238;9.562;2023-03-31T02:03:40;10.50;99.90
3416;DHT22;1721;51.238;9.562;2023-03-31T02:06:15;10.50;99.90
3416;DHT22;1721;51.238;9.562;2023-03-31T02:08:53;10.50;99.90
3416;DHT22;1721;51.238;9.562;2023-03-31T02:11:21;10.50;99.90
3416;DHT22;1721;51.238;9.562;2023-03-31T02:13:48;10.40;99.90
3416;DHT22;1721;51.238;9.562;2023-03-31T02:16:21;10.40;99.90
3416;DHT22;1721;51.238;9.562;2023-03-31T02:18:51;10.40;99.90
3416;DHT22;1721;51.238;9.562;2023-03-31T02:21:18;10.40;99.90
3416;DHT22;1721;51.238;9.562;2023-03-31T02:23:45;10.50;99.90
3416;DHT22;1721;51.238;9.562;2023-03-31T02:26:15;10.50;99.90
3416;DHT22;1721;51.238;9.562;2023-03-31T02:28:43;10.50;99.90
3416;DHT22;1721;51.238;9.562;2023-03-31T02:31:31;10.50;99.90
3416;DHT22;1721;51.238;9.562;2023-03-31T02:34:00;10.60;99.90
3416;DHT22;1721;51.238;9.562;2023-03-31T02:36:27;10.70;99.90
3416;DHT22;1721;51.238;9.562;2023-03-31T02:39:08;10.70;99.90
3416;DHT22;1721;51.238;9.562;2023-03-31T02:41:35;10.70;99.90
3416;DHT22;1721;51.238;9.562;2023-03-31T02:44:01;10.80;99.90
3416;DHT22;1721;51.238;9.562;2023-03-31T02:46:27;10.70;99.90
3416;DHT22;1721;51.238;9.562;2023-03-31T02:48:56;10.70;99.90
3416;DHT22;1721;51.238;9.562;2023-03-31T03:05:53;10.90;99.90
3416;DHT22;1721;51.238;9.562;2023-03-31T03:09:04;10.90;99.90
3416;DHT22;1721;51.238;9.562;2023-03-31T03:17:03;10.90;99.90
3416;DHT22;1721;51.238;9.562;2023-03-31T03:19:30;11.00;99.90
3416;DHT22;1721;51.238;9.562;2023-03-31T03:21:56;11.00;99.90
3416;DHT22;1721;51.238;9.562;2023-03-31T03:24:22;11.10;99.90
3416;DHT22;1721;51.238;9.562;2023-03-31T03:26:48;10.90;99.90
3416;DHT22;1721;51.238;9.562;2023-03-31T03:29:14;11.00;99.90
3416;DHT22;1721;51.238;9.562;2023-03-31T03:31:42;11.00;99.90
3416;DHT22;1721;51.238;9.562;2023-03-31T03:34:08;10.90;99.90
3416;DHT22;1721;51.238;9.562;2023-03-31T03:36:35;10.90;99.90
3416;DHT22;1721;51.238;9.562;2023-03-31T03:39:02;10.90;99.90
3416;DHT22;1721;51.238;9.562;2023-03-31T03:41:28;10.90;99.90
3416;DHT22;1721;51.238;9.562;2023-03-31T03:43:54;11.00;99.90
3416;DHT22;1721;51.238;9.562;2023-03-31T03:46:20;10.90;99.90
3416;DHT22;1721;51.238;9.562;2023-03-31T03:48:45;10.90;99.90
3416;DHT22;1721;51.238;9.562;2023-03-31T03:51:11;10.80;99.90
3416;DHT22;1721;51.238;9.562;2023-03-31T03:53:36;10.90;99.90
3416;DHT22;1721;51.238;9.562;2023-03-31T03:56:02;11.00;99.90
3416;DHT22;1721;51.238;9.562;2023-03-31T03:58:27;10.90;99.90
3416;DHT22;1721;51.238;9.562;2023-03-31T04:00:53;11.00;99.90
3416;DHT22;1721;51.238;9.562;2023-03-31T04:03:18;10.90;99.90
3416;DHT22;1721;51.238;9.562;2023-03-31T04:05:45;10.90;99.90
3416;DHT22;1721;51.238;9.562;2023-03-31T04:08:16;10.90;99.90
3416;DHT22;1721;51.238;9.562;2023-03-31T04:10:46;10.90;99.90
3416;DHT22;1721;51.238;9.562;2023-03-31T04:13:14;10.80;99.90
3416;DHT22;1721;51.238;9.562;2023-03-31T04:15:40;10.80;99.90
3416;DHT22;1721;51.238;9.562;2023-03-31T04:18:06;10.90;99.90
3416;DHT22;1721;51.238;9.562;2023-03-31T04:20:35;10.80;99.90
3416;DHT22;1721;51.238;9.562;2023-03-31T04:23:03;10.80;99.90
3416;DHT22;1721;51.238;9.562;2023-03-31T04:25:30;10.80;99.90
3416;DHT22;1721;51.238;9.562;2023-03-31T04:27:56;10.90;99.90
3416;DHT22;1721;51.238;9.562;2023-03-31T04:30:24;11.00;99.90
3416;DHT22;1721;51.238;9.562;2023-03-31T04:32:56;10.90;99.90
3416;DHT22;1721;51.238;9.562;2023-03-31T04:35:23;11.10;99.90
3416;DHT22;1721;51.238;9.562;2023-03-31T04:37:51;11.20;99.90
3416;DHT22;1721;51.238;9.562;2023-03-31T04:40:24;11.20;99.90
3416;DHT22;1721;51.238;9.562;2023-03-31T04:42:50;11.20;99.90
3416;DHT22;1721;51.238;9.562;2023-03-31T04:45:16;11.10;99.90
3416;DHT22;1721;51.238;9.562;2023-03-31T04:47:41;11.30;99.90
3416;DHT22;1721;51.238;9.562;2023-03-31T04:50:08;11.30;99.90
3416;DHT22;1721;51.238;9.562;2023-03-31T04:52:35;11.10;99.90
3416;DHT22;1721;51.238;9.562;2023-03-31T04:55:01;11.20;99.90
3416;DHT22;1721;51.238;9.562;2023-03-31T04:57:27;11.10;99.90
3416;DHT22;1721;51.238;9.562;2023-03-31T04:59:52;11.20;99.90
3416;DHT22;1721;51.238;9.562;2023-03-31T05:02:18;11.10;99.90
3416;DHT22;1721;51.238;9.562;2023-03-31T05:04:48;11.10;99.90
3416;DHT22;1721;51.238;9.562;2023-03-31T05:07:15;10.90;99.90
3416;DHT22;1721;51.238;9.562;2023-03-31T05:09:41;11.10;99.90
3416;DHT22;1721;51.238;9.562;2023-03-31T05:12:07;11.20;99.90
3416;DHT22;1721;51.238;9.562;2023-03-31T05:14:32;11.00;99.90
3416;DHT22;1721;51.238;9.562;2023-03-31T05:16:58;10.80;99.90
3416;DHT22;1721;51.238;9.562;2023-03-31T05:19:23;10.90;99.90
3416;DHT22;1721;51.238;9.562;2023-03-31T05:21:49;10.90;99.90
3416;DHT22;1721;51.238;9.562;2023-03-31T05:24:15;11.00;99.90
3416;DHT22;1721;51.238;9.562;2023-03-31T05:26:40;11.00;99.90
3416;DHT22;1721;51.238;9.562;2023-03-31T05:29:08;11.10;99.90
3416;DHT22;1721;51.238;9.562;2023-03-31T05:31:34;11.00;99.90
3416;DHT22;1721;51.238;9.562;2023-03-31T05:33:59;10.80;99.90
3416;DHT22;1721;51.238;9.562;2023-03-31T05:36:25;11.00;99.90
3416;DHT22;1721;51.238;9.562;2023-03-31T05:38:51;11.00;99.90
3416;DHT22;1721;51.238;9.562;2023-03-31T05:41:16;11.10;99.90
3416;DHT22;1721;51.238;9.562;2023-03-31T05:43:42;11.20;99.90
3416;DHT22;1721;51.238;9.562;2023-03-31T05:46:08;11.40;99.90
3416;DHT22;1721;51.238;9.562;2023-03-31T05:48:34;11.50;99.90
3416;DHT22;1721;51.238;9.562;2023-03-31T05:51:01;11.40;99.90
3416;DHT22;1721;51.238;9.562;2023-03-31T05:53:27;11.50;99.90
3416;DHT22;1721;51.238;9.562;2023-03-31T05:55:57;11.40;99.90
3416;DHT22;1721;51.238;9.562;2023-03-31T05:58:23;11.20;99.90
3416;DHT22;1721;51.238;9.562;2023-03-31T06:00:48;11.30;99.90
3416;DHT22;1721;51.238;9.562;2023-03-31T06:03:14;11.30;99.90
3416;DHT22;1721;51.238;9.562;2023-03-31T06:05:46;11.50;99.90
3416;DHT22;1721;51.238;9.562;2023-03-31T06:08:11;11.40;99.90
3416;DHT22;1721;51.238;9.562;2023-03-31T06:10:37;11.50;99.90
3416;DHT22;1721;51.238;9.562;2023-03-31T06:13:03;11.50;99.90
3416;DHT22;1721;51.238;9.562;2023-03-31T06:15:28;11.40;99.90
3416;DHT22;1721;51.238;9.562;2023-03-31T06:17:54;11.30;99.90
3416;DHT22;1721;51.238;9.562;2023-03-31T06:20:19;11.40;99.90
3416;DHT22;1721;51.238;9.562;2023-03-31T06:22:45;11.40;99.90
3416;DHT22;1721;51.238;9.562;2023-03-31T06:25:11;11.30;99.90
3416;DHT22;1721;51.238;9.562;2023-03-31T06:27:36;11.50;99.90
3416;DHT22;1721;51.238;9.562;2023-03-31T06:30:02;11.40;99.90
3416;DHT22;1721;51.238;9.562;2023-03-31T06:32:27;11.20;99.90
3416;DHT22;1721;51.238;9.562;2023-03-31T06:34:53;11.30;99.90
3416;DHT22;1721;51.238;9.562;2023-03-31T06:37:18;11.40;99.90
3416;DHT22;1721;51.238;9.562;2023-03-31T06:39:44;11.30;99.90
3416;DHT22;1721;51.238;9.562;2023-03-31T06:42:09;11.20;99.90
3416;DHT22;1721;51.238;9.562;2023-03-31T06:44:35;11.20;99.90
3416;DHT22;1721;51.238;9.562;2023-03-31T06:47:01;11.20;99.90
3416;DHT22;1721;51.238;9.562;2023-03-31T06:49:26;11.30;99.90
3416;DHT22;1721;51.238;9.562;2023-03-31T06:51:52;11.20;99.90
3416;DHT22;1721;51.238;9.562;2023-03-31T06:54:17;11.20;99.90
3416;DHT22;1721;51.238;9.562;2023-03-31T06:56:43;11.20;99.90
3416;DHT22;1721;51.238;9.562;2023-03-31T06:59:08;11.10;99.90
3416;DHT22;1721;51.238;9.562;2023-03-31T07:01:34;11.30;99.90
3416;DHT22;1721;51.238;9.562;2023-03-31T07:04:02;11.20;99.90
3416;DHT22;1721;51.238;9.562;2023-03-31T07:06:28;11.20;99.90
3416;DHT22;1721;51.238;9.562;2023-03-31T07:08:53;11.10;99.90
3416;DHT22;1721;51.238;9.562;2023-03-31T07:11:19;11.00;99.90
3416;DHT22;1721;51.238;9.562;2023-03-31T07:13:44;10.90;99.90
3416;DHT22;1721;51.238;9.562;2023-03-31T07:16:10;10.90;99.90
3416;DHT22;1721;51.238;9.562;2023-03-31T07:18:38;10.80;99.90
3416;DHT22;1721;51.238;9.562;2023-03-31T07:21:07;10.70;99.90
3416;DHT22;1721;51.238;9.562;2023-03-31T07:23:33;10.70;99.90
3416;DHT22;1721;51.238;9.562;2023-03-31T07:25:58;10.60;99.90
3416;DHT22;1721;51.238;9.562;2023-03-31T07:28:28;10.50;99.90
3416;DHT22;1721;51.238;9.562;2023-03-31T07:30:54;10.70;99.90
3416;DHT22;1721;51.238;9.562;2023-03-31T07:33:19;10.70;99.90
3416;DHT22;1721;51.238;9.562;2023-03-31T07:35:45;10.80;99.90
3416;DHT22;1721;51.238;9.562;2023-03-31T07:38:11;10.70;99.90
3416;DHT22;1721;51.238;9.562;2023-03-31T07:40:37;10.70;99.90
3416;DHT22;1721;51.238;9.562;2023-03-31T07:43:03;10.70;99.90
3416;DHT22;1721;51.238;9.562;2023-03-31T07:45:29;10.60;99.90
3416;DHT22;1721;51.238;9.562;2023-03-31T07:47:55;10.70;99.90
3416;DHT22;1721;51.238;9.562;2023-03-31T07:50:21;10.70;99.90
3416;DHT22;1721;51.238;9.562;2023-03-31T07:52:48;10.80;99.90
3416;DHT22;1721;51.238;9.562;2023-03-31T07:55:14;10.90;99.90
3416;DHT22;1721;51.238;9.562;2023-03-31T07:57:40;11.00;99.90
3416;DHT22;1721;51.238;9.562;2023-03-31T08:00:07;11.00;99.90
3416;DHT22;1721;51.238;9.562;2023-03-31T08:02:36;11.00;99.90
3416;DHT22;1721;51.238;9.562;2023-03-31T08:05:02;11.00;99.90
3416;DHT22;1721;51.238;9.562;2023-03-31T08:07:28;11.00;99.90
3416;DHT22;1721;51.238;9.562;2023-03-31T08:09:55;11.00;99.90
3416;DHT22;1721;51.238;9.562;2023-03-31T08:12:21;10.90;99.90
3416;DHT22;1721;51.238;9.562;2023-03-31T08:14:46;10.90;99.90
3416;DHT22;1721;51.238;9.562;2023-03-31T08:17:13;10.80;99.90
3416;DHT22;1721;51.238;9.562;2023-03-31T08:19:38;10.70;99.90
3416;DHT22;1721;51.238;9.562;2023-03-31T08:22:04;10.60;99.90
3416;DHT22;1721;51.238;9.562;2023-03-31T08:24:29;10.60;99.90
3416;DHT22;1721;51.238;9.562;2023-03-31T08:26:55;10.50;99.90
3416;DHT22;1721;51.238;9.562;2023-03-31T08:29:21;10.50;99.90
3416;DHT22;1721;51.238;9.562;2023-03-31T08:31:46;10.40;99.90
3416;DHT22;1721;51.238;9.562;2023-03-31T08:34:12;10.60;99.90
3416;DHT22;1721;51.238;9.562;2023-03-31T08:36:38;10.40;99.90
3416;DHT22;1721;51.238;9.562;2023-03-31T08:39:03;10.30;99.90
3416;DHT22;1721;51.238;9.562;2023-03-31T08:41:44;10.30;99.90
3416;DHT22;1721;51.238;9.562;2023-03-31T08:46:56;10.20;99.90
3416;DHT22;1721;51.238;9.562;2023-03-31T08:49:23;10.30;99.90
3416;DHT22;1721;51.238;9.562;2023-03-31T08:52:03;10.40;99.90
3416;DHT22;1721;51.238;9.562;2023-03-31T08:54:35;10.50;99.90
3416;DHT22;1721;51.238;9.562;2023-03-31T08:57:03;10.40;99.90
3416;DHT22;1721;51.238;9.562;2023-03-31T08:59:33;10.40;99.90
3416;DHT22;1721;51.238;9.562;2023-03-31T09:02:04;10.50;99.90
3416;DHT22;1721;51.238;9.562;2023-03-31T09:07:17;10.70;99.90
3416;DHT22;1721;51.238;9.562;2023-03-31T09:10:13;10.70;99.90
3416;DHT22;1721;51.238;9.562;2023-03-31T09:16:02;11.10;99.90
3416;DHT22;1721;51.238;9.562;2023-03-31T09:18:31;11.20;99.90
3416;DHT22;1721;51.238;9.562;2023-03-31T09:21:17;11.20;99.90
3416;DHT22;1721;51.238;9.562;2023-03-31T09:24:18;11.30;99.90
3416;DHT22;1721;51.238;9.562;2023-03-31T09:27:06;11.50;99.90
3416;DHT22;1721;51.238;9.562;2023-03-31T09:29:48;11.60;99.90
3416;DHT22;1721;51.238;9.562;2023-03-31T09:32:19;11.60;99.90
3416;DHT22;1721;51.238;9.562;2023-03-31T09:34:46;11.60;99.90
3416;DHT22;1721;51.238;9.562;2023-03-31T09:37:14;11.70;99.90
3416;DHT22;1721;51.238;9.562;2023-03-31T09:39:40;11.70;99.90
3416;DHT22;1721;51.238;9.562;2023-03-31T09:42:08;11.80;99.90
3416;DHT22;1721;51.238;9.562;2023-03-31T09:44:43;11.90;99.90
3416;DHT22;1721;51.238;9.562;2023-03-31T09:47:15;12.20;99.90
3416;DHT22;1721;51.238;9.562;2023-03-31T09:49:45;12.20;99.90
3416;DHT22;1721;51.238;9.562;2023-03-31T09:52:31;12.30;99.90
3416;DHT22;1721;51.238;9.562;2023-03-31T09:55:00;12.60;99.90
3416;DHT22;1721;51.238;9.562;2023-03-31T09:57:32;12.80;99.90
3416;DHT22;1721;51.238;9.562;2023-03-31T10:02:39;13.20;99.20
3416;DHT22;1721;51.238;9.562;2023-03-31T10:05:27;13.40;99.10
3416;DHT22;1721;51.238;9.562;2023-03-31T10:08:18;13.60;99.30
3416;DHT22;1721;51.238;9.562;2023-03-31T10:10:47;13.70;99.50
3416;DHT22;1721;51.238;9.562;2023-03-31T10:13:16;14.00;98.20
3416;DHT22;1721;51.238;9.562;2023-03-31T10:15:43;14.10;98.70
3416;DHT22;1721;51.238;9.562;2023-03-31T10:18:16;14.40;98.40
3416;DHT22;1721;51.238;9.562;2023-03-31T10:20:50;14.40;98.10
3416;DHT22;1721;51.238;9.562;2023-03-31T10:23:28;13.70;98.60
3416;DHT22;1721;51.238;9.562;2023-03-31T10:25:54;13.50;99.20
3416;DHT22;1721;51.238;9.562;2023-03-31T10:28:20;13.70;99.00
3416;DHT22;1721;51.238;9.562;2023-03-31T10:30:51;13.80;99.30
3416;DHT22;1721;51.238;9.562;2023-03-31T10:33:23;14.10;98.60
3416;DHT22;1721;51.238;9.562;2023-03-31T10:35:54;14.00;98.70
3416;DHT22;1721;51.238;9.562;2023-03-31T10:38:33;14.10;99.00
3416;DHT22;1721;51.238;9.562;2023-03-31T10:41:00;14.10;99.70
3416;DHT22;1721;51.238;9.562;2023-03-31T10:43:36;14.30;99.10
3416;DHT22;1721;51.238;9.562;2023-03-31T10:46:05;14.20;99.10
3416;DHT22;1721;51.238;9.562;2023-03-31T10:48:36;14.20;99.00
3416;DHT22;1721;51.238;9.562;2023-03-31T10:51:16;14.40;99.20
3416;DHT22;1721;51.238;9.562;2023-03-31T10:53:46;14.40;99.10
3416;DHT22;1721;51.238;9.562;2023-03-31T10:56:35;14.40;98.70
3416;DHT22;1721;51.238;9.562;2023-03-31T11:02:32;14.60;99.10
3416;DHT22;1721;51.238;9.562;2023-03-31T11:08:05;14.70;98.70
3416;DHT22;1721;51.238;9.562;2023-03-31T11:18:32;15.10;97.80
3416;DHT22;1721;51.238;9.562;2023-03-31T11:21:17;14.90;97.70
3416;DHT22;1721;51.238;9.562;2023-03-31T11:27:40;14.90;98.20
3416;DHT22;1721;51.238;9.562;2023-03-31T11:35:42;14.90;97.50
3416;DHT22;1721;51.238;9.562;2023-03-31T11:41:07;14.60;97.30
3416;DHT22;1721;51.238;9.562;2023-03-31T11:43:50;14.80;97.70
3416;DHT22;1721;51.238;9.562;2023-03-31T11:46:28;14.60;97.00
3416;DHT22;1721;51.238;9.562;2023-03-31T11:49:03;14.50;97.10
3416;DHT22;1721;51.238;9.562;2023-03-31T11:51:41;14.50;97.40
3416;DHT22;1721;51.238;9.562;2023-03-31T11:54:15;14.50;97.30
3416;DHT22;1721;51.238;9.562;2023-03-31T11:56:42;14.70;97.30
3416;DHT22;1721;51.238;9.562;2023-03-31T11:59:12;14.70;97.60
3416;DHT22;1721;51.238;9.562;2023-03-31T12:02:01;14.70;98.20
3416;DHT22;1721;51.238;9.562;2023-03-31T12:04:38;14.60;98.40
3416;DHT22;1721;51.238;9.562;2023-03-31T12:07:30;14.90;98.60
3416;DHT22;1721;51.238;9.562;2023-03-31T12:10:21;14.90;98.20
3416;DHT22;1721;51.238;9.562;2023-03-31T12:12:54;15.00;98.50
3416;DHT22;1721;51.238;9.562;2023-03-31T12:16:00;15.30;98.50
3416;DHT22;1721;51.238;9.562;2023-03-31T12:18:21;15.40;98.70
3416;DHT22;1721;51.238;9.562;2023-03-31T12:20:53;15.40;98.00
3416;DHT22;1721;51.238;9.562;2023-03-31T12:23:28;15.30;98.00
3416;DHT22;1721;51.238;9.562;2023-03-31T12:26:01;15.30;98.20
3416;DHT22;1721;51.238;9.562;2023-03-31T12:28:29;15.20;98.60
3416;DHT22;1721;51.238;9.562;2023-03-31T12:31:00;15.30;98.60
3416;DHT22;1721;51.238;9.562;2023-03-31T12:33:39;14.90;98.40
3416;DHT22;1721;51.238;9.562;2023-03-31T12:55:16;13.50;98.50
3416;DHT22;1721;51.238;9.562;2023-03-31T12:57:45;13.10;98.70
3416;DHT22;1721;51.238;9.562;2023-03-31T13:00:25;12.80;99.10
3416;DHT22;1721;51.238;9.562;2023-03-31T13:05:55;12.70;99.60
3416;DHT22;1721;51.238;9.562;2023-03-31T13:08:51;12.90;99.80
3416;DHT22;1721;51.238;9.562;2023-03-31T13:11:18;13.00;99.90
3416;DHT22;1721;51.238;9.562;2023-03-31T13:13:55;13.40;99.90
3416;DHT22;1721;51.238;9.562;2023-03-31T13:16:22;13.70;99.90
3416;DHT22;1721;51.238;9.562;2023-03-31T13:18:52;13.90;99.70
3416;DHT22;1721;51.238;9.562;2023-03-31T13:21:18;13.80;99.70
3416;DHT22;1721;51.238;9.562;2023-03-31T13:23:45;13.90;99.80
3416;DHT22;1721;51.238;9.562;2023-03-31T13:29:21;14.20;99.40
3416;DHT22;1721;51.238;9.562;2023-03-31T13:32:17;14.10;98.50
3416;DHT22;1721;51.238;9.562;2023-03-31T13:38:00;14.00;99.20
3416;DHT22;1721;51.238;9.562;2023-03-31T13:52:11;13.40;98.30
3416;DHT22;1721;51.238;9.562;2023-03-31T13:55:08;13.30;98.50
3416;DHT22;1721;51.238;9.562;2023-03-31T14:01:15;12.90;99.70
3416;DHT22;1721;51.238;9.562;2023-03-31T14:13:41;13.70;99.90
3416;DHT22;1721;51.238;9.562;2023-03-31T14:16:07;14.00;99.00
3416;DHT22;1721;51.238;9.562;2023-03-31T14:18:35;13.90;98.70
3416;DHT22;1721;51.238;9.562;2023-03-31T14:21:30;14.10;99.00
3416;DHT22;1721;51.238;9.562;2023-03-31T14:24:30;14.30;98.60
3416;DHT22;1721;51.238;9.562;2023-03-31T14:27:23;14.50;97.70
3416;DHT22;1721;51.238;9.562;2023-03-31T14:30:05;14.50;97.50
3416;DHT22;1721;51.238;9.562;2023-03-31T14:32:56;14.50;97.40
3416;DHT22;1721;51.238;9.562;2023-03-31T14:35:42;14.40;96.70
3416;DHT22;1721;51.238;9.562;2023-03-31T14:38:17;14.50;96.70
3416;DHT22;1721;51.238;9.562;2023-03-31T14:40:48;14.50;96.30
3416;DHT22;1721;51.238;9.562;2023-03-31T14:43:24;14.50;96.40
3416;DHT22;1721;51.238;9.562;2023-03-31T14:48:28;14.30;95.80
3416;DHT22;1721;51.238;9.562;2023-03-31T14:50:57;14.20;96.00
3416;DHT22;1721;51.238;9.562;2023-03-31T14:53:24;13.90;96.10
3416;DHT22;1721;51.238;9.562;2023-03-31T14:55:58;13.70;96.70
3416;DHT22;1721;51.238;9.562;2023-03-31T14:58:28;13.50;97.10
3416;DHT22;1721;51.238;9.562;2023-03-31T15:00:54;13.30;97.50
3416;DHT22;1721;51.238;9.562;2023-03-31T15:03:20;13.40;97.80
3416;DHT22;1721;51.238;9.562;2023-03-31T15:05:46;12.90;98.00
3416;DHT22;1721;51.238;9.562;2023-03-31T15:08:17;12.80;98.30
3416;DHT22;1721;51.238;9.562;2023-03-31T15:10:54;12.70;98.90
3416;DHT22;1721;51.238;9.562;2023-03-31T15:13:41;12.70;98.80
3416;DHT22;1721;51.238;9.562;2023-03-31T15:18:55;12.70;98.90
3416;DHT22;1721;51.238;9.562;2023-03-31T15:21:23;12.50;99.20
3416;DHT22;1721;51.238;9.562;2023-03-31T15:23:51;12.70;99.70
3416;DHT22;1721;51.238;9.562;2023-03-31T15:26:20;12.80;99.30
3416;DHT22;1721;51.238;9.562;2023-03-31T15:28:53;12.80;99.30
3416;DHT22;1721;51.238;9.562;2023-03-31T15:31:21;13.00;98.80
3416;DHT22;1721;51.238;9.562;2023-03-31T15:33:47;13.00;98.80
3416;DHT22;1721;51.238;9.562;2023-03-31T15:36:13;13.10;98.50
3416;DHT22;1721;51.238;9.562;2023-03-31T15:38:39;13.00;98.50
3416;DHT22;1721;51.238;9.562;2023-03-31T15:41:11;13.00;98.40
3416;DHT22;1721;51.238;9.562;2023-03-31T15:46:09;13.00;98.50
3416;DHT22;1721;51.238;9.562;2023-03-31T15:48:47;13.00;98.40
3416;DHT22;1721;51.238;9.562;2023-03-31T15:53:45;13.00;98.10
3416;DHT22;1721;51.238;9.562;2023-03-31T15:56:34;13.10;98.40
3416;DHT22;1721;51.238;9.562;2023-03-31T15:59:01;13.00;98.00
3416;DHT22;1721;51.238;9.562;2023-03-31T16:01:30;12.80;98.10
3416;DHT22;1721;51.238;9.562;2023-03-31T16:03:57;12.70;98.30
3416;DHT22;1721;51.238;9.562;2023-03-31T16:09:24;12.40;98.10
3416;DHT22;1721;51.238;9.562;2023-03-31T16:11:59;12.40;98.40
3416;DHT22;1721;51.238;9.562;2023-03-31T16:14:33;12.40;98.60
3416;DHT22;1721;51.238;9.562;2023-03-31T16:17:06;12.40;98.10
3416;DHT22;1721;51.238;9.562;2023-03-31T16:19:44;12.60;98.20
3416;DHT22;1721;51.238;9.562;2023-03-31T16:22:16;12.50;98.00
3416;DHT22;1721;51.238;9.562;2023-03-31T16:24:42;12.30;98.00
3416;DHT22;1721;51.238;9.562;2023-03-31T16:27:08;12.30;98.00
3416;DHT22;1721;51.238;9.562;2023-03-31T16:29:35;12.20;98.20
3416;DHT22;1721;51.238;9.562;2023-03-31T16:32:13;12.20;98.30
3416;DHT22;1721;51.238;9.562;2023-03-31T16:34:56;12.10;98.20
3416;DHT22;1721;51.238;9.562;2023-03-31T16:37:23;11.90;98.60
3416;DHT22;1721;51.238;9.562;2023-03-31T16:39:48;12.00;98.60
3416;DHT22;1721;51.238;9.562;2023-03-31T16:42:14;11.80;98.80
3416;DHT22;1721;51.238;9.562;2023-03-31T16:44:40;11.80;98.90
3416;DHT22;1721;51.238;9.562;2023-03-31T16:47:06;11.90;99.00
3416;DHT22;1721;51.238;9.562;2023-03-31T16:49:31;11.90;98.90
3416;DHT22;1721;51.238;9.562;2023-03-31T16:51:57;11.90;99.10
3416;DHT22;1721;51.238;9.562;2023-03-31T16:54:23;11.90;99.00
3416;DHT22;1721;51.238;9.562;2023-03-31T16:56:48;11.90;98.80
3416;DHT22;1721;51.238;9.562;2023-03-31T16:59:14;11.70;98.70
3416;DHT22;1721;51.238;9.562;2023-03-31T17:01:40;11.50;99.00
3416;DHT22;1721;51.238;9.562;2023-03-31T17:04:06;11.60;99.00
3416;DHT22;1721;51.238;9.562;2023-03-31T17:06:32;11.50;99.20
3416;DHT22;1721;51.238;9.562;2023-03-31T17:08:57;11.60;98.90
3416;DHT22;1721;51.238;9.562;2023-03-31T17:11:23;11.60;98.80
3416;DHT22;1721;51.238;9.562;2023-03-31T17:13:49;11.50;99.10
3416;DHT22;1721;51.238;9.562;2023-03-31T17:16:15;11.50;99.10
3416;DHT22;1721;51.238;9.562;2023-03-31T17:18:42;11.60;99.20
3416;DHT22;1721;51.238;9.562;2023-03-31T17:21:13;11.50;99.10
3416;DHT22;1721;51.238;9.562;2023-03-31T17:23:39;11.60;98.90
3416;DHT22;1721;51.238;9.562;2023-03-31T17:26:06;11.40;98.60
3416;DHT22;1721;51.238;9.562;2023-03-31T17:28:34;11.20;98.90
3416;DHT22;1721;51.238;9.562;2023-03-31T17:31:00;11.10;99.40
3416;DHT22;1721;51.238;9.562;2023-03-31T17:33:26;11.10;99.40
3416;DHT22;1721;51.238;9.562;2023-03-31T17:35:56;11.10;99.50
3416;DHT22;1721;51.238;9.562;2023-03-31T17:38:23;11.30;99.60
3416;DHT22;1721;51.238;9.562;2023-03-31T17:40:49;11.30;99.60
3416;DHT22;1721;51.238;9.562;2023-03-31T17:43:14;11.10;99.40
3416;DHT22;1721;51.238;9.562;2023-03-31T17:45:40;11.10;99.70
3416;DHT22;1721;51.238;9.562;2023-03-31T17:48:06;11.10;99.60
3416;DHT22;1721;51.238;9.562;2023-03-31T17:50:34;11.20;99.40
3416;DHT22;1721;51.238;9.562;2023-03-31T17:53:00;11.10;99.60
3416;DHT22;1721;51.238;9.562;2023-03-31T17:55:25;11.00;99.60
3416;DHT22;1721;51.238;9.562;2023-03-31T17:57:51;10.90;99.80
3416;DHT22;1721;51.238;9.562;2023-03-31T18:00:17;10.90;99.90
3416;DHT22;1721;51.238;9.562;2023-03-31T18:02:43;10.90;99.90
3416;DHT22;1721;51.238;9.562;2023-03-31T18:05:10;10.90;99.90
3416;DHT22;1721;51.238;9.562;2023-03-31T18:07:36;10.90;99.90
3416;DHT22;1721;51.238;9.562;2023-03-31T18:10:03;10.90;99.90
3416;DHT22;1721;51.238;9.562;2023-03-31T18:12:30;10.90;99.90
3416;DHT22;1721;51.238;9.562;2023-03-31T18:14:55;11.00;99.90
3416;DHT22;1721;51.238;9.562;2023-03-31T18:17:21;11.00;99.90
3416;DHT22;1721;51.238;9.562;2023-03-31T18:19:47;11.00;99.90
3416;DHT22;1721;51.238;9.562;2023-03-31T18:22:13;11.10;99.90
3416;DHT22;1721;51.238;9.562;2023-03-31T18:24:38;11.10;99.90
3416;DHT22;1721;51.238;9.562;2023-03-31T18:27:05;11.10;99.90
3416;DHT22;1721;51.238;9.562;2023-03-31T18:29:31;11.00;99.90
3416;DHT22;1721;51.238;9.562;2023-03-31T18:31:57;11.00;99.90
3416;DHT22;1721;51.238;9.562;2023-03-31T18:34:22;11.00;99.90
3416;DHT22;1721;51.238;9.562;2023-03-31T18:36:48;11.00;99.90
3416;DHT22;1721;51.238;9.562;2023-03-31T18:39:14;11.10;99.90
3416;DHT22;1721;51.238;9.562;2023-03-31T18:41:44;11.10;99.90
3416;DHT22;1721;51.238;9.562;2023-03-31T18:44:10;11.10;99.90
3416;DHT22;1721;51.238;9.562;2023-03-31T18:46:39;11.20;99.90
3416;DHT22;1721;51.238;9.562;2023-03-31T18:49:04;11.10;99.90
3416;DHT22;1721;51.238;9.562;2023-03-31T18:51:30;11.20;99.90